Time;durP1;ratioP1;P1;durP2;ratioP2;P2;SDS_P1;SDS_P2;PMS_P1;PMS_P2;Temp;Humidity;BMP_temperature;BMP_pressure;BME280_temperature;BME280_humidity;BME280_pressure;Samples;Min_cycle;Max_cycle;Signal;HPM_P1;HPM_P2
2022/03/17 00:01:26;;;;;;;58.47;31.67;;;;;;;-1.03;67.87;100287.70;2119936;84;20931;-80
2022/03/17 00:04:27;;;;;;;60.57;31.27;;;;;;;-0.99;67.56;100291.40;2118271;84;21374;-80
2022/03/17 00:07:28;;;;;;;65.67;33.53;;;;;;;-0.94;67.63;100290.09;2119360;84;20990;-80
2022/03/17 00:10:28;;;;;;;66.17;36.00;;;;;;;-0.93;67.65;100298.30;2117034;84;20963;-79
2022/03/17 00:13:29;;;;;;;72.97;37.13;;;;;;;-0.91;68.14;100300.98;2118078;84;20979;-78
2022/03/17 00:16:31;;;;;;;68.50;35.43;;;;;;;-0.59;68.91;100315.11;2118343;84;21002;-80
2022/03/17 00:19:32;;;;;;;63.67;35.30;;;;;;;-0.53;68.05;100315.59;2119608;84;21003;-80
2022/03/17 00:22:32;;;;;;;95.43;43.07;;;;;;;-0.51;68.01;100314.03;2118213;84;20971;-78
2022/03/17 00:25:33;;;;;;;73.27;37.50;;;;;;;-0.55;68.14;100309.05;2121965;83;21256;-79
2022/03/17 00:28:34;;;;;;;77.20;40.80;;;;;;;-0.65;67.73;100313.84;2125594;84;20982;-80
2022/03/17 00:31:37;;;;;;;84.67;41.93;;;;;;;-0.75;67.52;100313.89;2111639;83;20939;-79
2022/03/17 00:37:56;;;;;;;117.93;44.87;;;;;;;-0.88;67.88;100308.92;2118802;84;21003;-80
2022/03/17 00:40:56;;;;;;;88.90;43.60;;;;;;;-1.00;68.12;100309.73;2117425;82;20931;-81
2022/03/17 00:43:57;;;;;;;213.43;47.77;;;;;;;-1.06;68.47;100313.47;2118767;84;20943;-82
2022/03/17 00:46:57;;;;;;;80.23;41.87;;;;;;;-1.11;68.92;100307.08;2092005;84;21007;-81
2022/03/17 00:49:58;;;;;;;72.93;36.93;;;;;;;-1.14;68.90;100314.13;2100591;84;20982;-81
2022/03/17 00:52:59;;;;;;;78.73;41.67;;;;;;;-1.22;68.73;100307.48;2109094;84;21030;-81
2022/03/17 00:56:00;;;;;;;87.57;39.57;;;;;;;-1.25;69.47;100307.24;2109356;84;21429;-79
2022/03/17 00:59:00;;;;;;;72.00;39.93;;;;;;;-1.25;69.63;100305.96;2101320;84;20946;-79
2022/03/17 01:02:01;;;;;;;71.47;37.93;;;;;;;-1.22;70.62;100303.65;2119483;84;20939;-81
2022/03/17 01:05:01;;;;;;;63.93;35.20;;;;;;;-1.18;70.02;100306.07;2110336;84;21325;-81
2022/03/17 01:08:02;;;;;;;65.47;33.37;;;;;;;-1.21;69.55;100310.95;2119584;84;21313;-81
2022/03/17 01:11:02;;;;;;;56.73;33.70;;;;;;;-1.02;73.75;100307.43;2109778;84;20952;-81
2022/03/17 01:14:03;;;;;;;64.73;34.27;;;;;;;-0.83;70.06;100311.11;2092205;84;20970;-81
2022/03/17 01:17:03;;;;;;;57.13;31.03;;;;;;;-0.90;69.90;100308.80;2100595;84;21067;-81
2022/03/17 01:20:03;;;;;;;62.13;30.90;;;;;;;-0.98;69.98;100313.70;2101430;84;20979;-80
2022/03/17 01:23:04;;;;;;;59.43;33.87;;;;;;;-1.07;69.98;100321.92;2091437;84;20955;-80
2022/03/17 01:26:05;;;;;;;58.97;32.00;;;;;;;-1.15;70.14;100317.85;2091415;84;21019;-80
2022/03/17 01:29:05;;;;;;;75.70;35.83;;;;;;;-1.20;70.16;100320.04;2091509;84;20950;-80
2022/03/17 01:32:06;;;;;;;73.73;35.00;;;;;;;-1.20;70.64;100321.70;2101095;83;20944;-80
2022/03/17 01:35:07;;;;;;;64.37;35.67;;;;;;;-1.19;70.58;100318.37;2100387;84;21314;-80
2022/03/17 01:38:08;;;;;;;75.10;41.43;;;;;;;-1.18;71.04;100321.45;2091546;85;21092;-80
2022/03/17 01:41:08;;;;;;;72.00;41.53;;;;;;;-1.14;71.42;100318.36;2118210;84;21374;-79
2022/03/17 01:44:09;;;;;;;74.10;39.60;;;;;;;-1.10;71.46;100317.45;2110116;83;21322;-80
2022/03/17 01:47:27;;;;;;;77.77;44.20;;;;;;;-1.04;71.43;100317.05;2109934;84;20923;-80
2022/03/17 01:50:28;;;;;;;81.83;43.80;;;;;;;-1.05;71.38;100307.19;2108272;84;20991;-81
2022/03/17 01:53:28;;;;;;;84.87;47.10;;;;;;;-1.04;71.36;100315.77;2091433;85;21319;-81
2022/03/17 01:56:29;;;;;;;73.93;40.73;;;;;;;-1.08;72.10;100318.47;2094212;84;21402;-80
2022/03/17 01:59:30;;;;;;;79.87;44.10;;;;;;;-1.05;71.70;100321.66;2121180;84;20940;-81
2022/03/17 02:02:31;;;;;;;77.93;45.53;;;;;;;-1.06;71.91;100324.61;2119094;83;20991;-80
2022/03/17 02:05:33;;;;;;;86.83;45.97;;;;;;;-1.00;72.57;100326.77;2107228;84;20981;-80
2022/03/17 02:08:33;;;;;;;83.57;46.23;;;;;;;-0.97;72.32;100327.92;2099575;84;21043;-80
2022/03/17 02:14:53;;;;;;;162.73;52.53;;;;;;;-0.87;72.79;100319.30;2119478;84;21030;-81
2022/03/17 02:17:54;;;;;;;86.37;45.27;;;;;;;-0.81;72.87;100323.66;2108800;84;21440;-81
2022/03/17 02:20:59;;;;;;;86.83;47.23;;;;;;;-0.78;72.69;100329.03;2104185;84;20951;-81
2022/03/17 02:27:16;;;;;;;91.63;48.87;;;;;;;-0.73;73.64;100330.69;2111828;84;21019;-81
2022/03/17 02:30:16;;;;;;;93.00;48.40;;;;;;;-0.66;74.07;100336.81;2106778;84;20939;-81
2022/03/17 02:33:17;;;;;;;84.90;48.67;;;;;;;-0.59;73.60;100339.47;2102071;84;20976;-81
2022/03/17 02:36:18;;;;;;;94.37;51.67;;;;;;;-0.57;73.60;100342.66;2091503;85;20980;-81
2022/03/17 02:39:18;;;;;;;84.83;49.30;;;;;;;-0.51;73.97;100347.00;2097472;84;21059;-81
2022/03/17 02:42:19;;;;;;;87.63;49.00;;;;;;;-0.43;74.04;100352.73;2111837;84;21019;-81
2022/03/17 02:45:19;;;;;;;92.07;49.53;;;;;;;-0.37;73.66;100356.67;2126196;83;21041;-81
2022/03/17 02:48:20;;;;;;;124.03;51.57;;;;;;;-0.33;73.36;100362.55;2113666;83;20911;-82
2022/03/17 02:51:20;;;;;;;92.60;49.50;;;;;;;-0.34;73.12;100368.84;2106203;84;20983;-82
2022/03/17 02:54:21;;;;;;;82.80;45.47;;;;;;;-0.41;72.99;100375.16;2100438;83;20955;-82
2022/03/17 02:57:21;;;;;;;86.63;46.87;;;;;;;-0.47;72.83;100380.20;2104229;84;21362;-82
2022/03/17 03:00:22;;;;;;;83.80;47.30;;;;;;;-0.56;72.94;100379.47;2110899;84;20936;-82
2022/03/17 03:03:22;;;;;;;76.27;44.57;;;;;;;-0.62;72.76;100390.13;2098233;84;20912;-81
2022/03/17 03:06:23;;;;;;;83.23;46.90;;;;;;;-0.69;72.47;100393.88;2119841;84;20936;-81
2022/03/17 03:09:23;;;;;;;150.30;49.30;;;;;;;-0.75;72.62;100401.08;2083299;83;21035;-82
2022/03/17 03:12:24;;;;;;;112.77;51.77;;;;;;;-0.79;72.75;100403.27;2078276;85;20999;-81
2022/03/17 03:15:24;;;;;;;77.63;45.27;;;;;;;-0.85;73.09;100406.23;2104253;84;21007;-81
2022/03/17 03:18:25;;;;;;;80.97;46.40;;;;;;;-0.93;72.50;100416.59;2103639;84;21389;-82
2022/03/17 03:21:25;;;;;;;81.07;45.00;;;;;;;-1.09;72.45;100415.73;2113694;83;20920;-81
2022/03/17 03:24:26;;;;;;;84.47;47.60;;;;;;;-1.19;72.57;100413.17;2124235;84;20919;-81
2022/03/17 03:27:27;;;;;;;88.37;48.07;;;;;;;-1.26;73.21;100413.44;2096515;83;20923;-81
2022/03/17 03:30:28;;;;;;;88.40;47.07;;;;;;;-1.27;73.39;100412.92;2120373;83;21007;-82
2022/03/17 03:33:28;;;;;;;85.00;46.63;;;;;;;-1.33;73.51;100406.91;2120154;83;20955;-81
2022/03/17 03:39:48;;;;;;;79.47;45.77;;;;;;;-1.40;73.67;100409.34;2108946;83;21005;-81
2022/03/17 03:42:49;;;;;;;88.93;48.50;;;;;;;-1.37;74.21;100416.01;2119845;83;21359;-81
2022/03/17 03:45:50;;;;;;;82.53;46.70;;;;;;;-1.39;74.28;100419.20;2119130;84;21438;-80
2022/03/17 03:48:50;;;;;;;84.60;47.60;;;;;;;-1.45;74.33;100414.85;2118052;84;21026;-81
2022/03/17 03:51:51;;;;;;;80.53;47.90;;;;;;;-1.43;74.53;100413.31;2115938;84;21366;-80
2022/03/17 03:54:52;;;;;;;85.20;47.07;;;;;;;-1.48;74.60;100406.53;2112485;83;20971;-81
2022/03/17 03:57:53;;;;;;;88.37;48.90;;;;;;;-1.46;75.14;100406.66;2110448;83;21002;-81
2022/03/17 04:00:53;;;;;;;87.03;47.73;;;;;;;-1.42;74.96;100409.61;2111245;83;21023;-81
2022/03/17 04:03:54;;;;;;;91.90;48.83;;;;;;;-1.45;75.82;100414.85;2112004;83;21007;-80
2022/03/17 04:06:54;;;;;;;94.33;49.80;;;;;;;-1.40;75.53;100416.14;2119965;84;21014;-81
2022/03/17 04:09:55;;;;;;;88.37;48.70;;;;;;;-1.42;75.19;100427.53;2119876;84;20939;-82
2022/03/17 04:12:56;;;;;;;108.93;48.17;;;;;;;-1.43;75.04;100432.53;2120403;84;20999;-80
2022/03/17 04:15:56;;;;;;;90.63;47.57;;;;;;;-1.48;74.85;100433.42;2118631;84;20990;-81
2022/03/17 04:18:56;;;;;;;94.90;46.70;;;;;;;-1.50;75.08;100442.64;2112676;83;20967;-80
2022/03/17 04:21:57;;;;;;;94.80;46.67;;;;;;;-1.53;74.64;100444.95;2120152;84;20959;-82
2022/03/17 04:24:57;;;;;;;88.70;44.73;;;;;;;-1.60;74.58;100445.20;2119042;84;21108;-82
2022/03/17 04:27:58;;;;;;;98.13;47.47;;;;;;;-1.61;74.06;100450.70;2112111;83;21018;-83
2022/03/17 04:30:58;;;;;;;83.67;45.50;;;;;;;-1.65;74.43;100457.61;2118515;84;20954;-83
2022/03/17 04:33:59;;;;;;;193.27;51.00;;;;;;;-1.59;75.26;100463.63;2119515;84;20986;-82
2022/03/17 04:37:00;;;;;;;80.73;44.23;;;;;;;-1.61;74.95;100461.33;2119380;84;21041;-82
2022/03/17 04:40:01;;;;;;;86.53;46.87;;;;;;;-1.64;75.54;100458.50;2118269;83;21417;-83
2022/03/17 04:43:02;;;;;;;95.27;44.63;;;;;;;-1.67;75.11;100466.82;2120354;83;21465;-82
2022/03/17 04:46:03;;;;;;;82.93;46.97;;;;;;;-1.67;75.94;100468.48;2117305;84;21037;-83
2022/03/17 04:49:03;;;;;;;82.03;45.97;;;;;;;-1.67;75.47;100471.94;2117126;84;20953;-84
2022/03/17 04:53:26;;;;;;;125.07;46.93;;;;;;;-1.44;76.42;100470.44;2124051;84;20978;-83
2022/03/17 04:55:06;;;;;;;73.50;42.57;;;;;;;-1.49;75.20;100479.39;2113572;84;21049;-83
2022/03/17 04:58:07;;;;;;;92.83;46.07;;;;;;;-1.57;75.29;100479.12;2115450;84;21074;-82
2022/03/17 05:01:07;;;;;;;221.10;54.77;;;;;;;-1.62;75.85;100488.98;2109977;84;20978;-84
2022/03/17 05:04:12;;;;;;;180.43;54.63;;;;;;;-1.68;74.59;100490.63;2117809;84;23430;-82
2022/03/17 05:07:12;;;;;;;98.80;47.27;;;;;;;-1.64;74.85;100492.69;2124640;84;21029;-82
2022/03/17 05:10:13;;;;;;;89.07;48.73;;;;;;;-1.66;74.47;100499.72;2123353;84;20998;-84
2022/03/17 05:13:13;;;;;;;185.10;52.43;;;;;;;-1.66;74.90;100495.50;2102771;84;21450;-83
2022/03/17 05:16:14;;;;;;;299.50;60.13;;;;;;;-1.66;74.66;100498.44;2116837;84;21415;-79
2022/03/17 05:19:14;;;;;;;91.77;47.87;;;;;;;-1.73;74.13;100507.27;2116290;84;21398;-79
2022/03/17 05:22:15;;;;;;;109.93;48.87;;;;;;;-1.76;74.09;100496.72;2116318;84;21006;-82
2022/03/17 05:25:15;;;;;;;81.33;45.80;;;;;;;-1.78;74.15;100501.19;2115829;84;21035;-83
2022/03/17 05:28:16;;;;;;;84.43;45.77;;;;;;;-1.78;74.01;100500.81;2123295;84;20978;-84
2022/03/17 05:31:16;;;;;;;81.60;47.17;;;;;;;-1.75;74.12;100502.73;2123507;84;20971;-84
2022/03/17 05:34:17;;;;;;;89.13;48.07;;;;;;;-1.70;74.08;100504.96;2123733;84;21165;-83
2022/03/17 05:37:17;;;;;;;72.67;43.13;;;;;;;-1.65;73.94;100502.41;2123929;84;21014;-83
2022/03/17 05:40:18;;;;;;;380.87;68.07;;;;;;;-1.55;73.71;100500.26;2117094;84;20958;-84
2022/03/17 05:43:19;;;;;;;89.70;47.63;;;;;;;-1.49;73.69;100499.50;2121587;84;21033;-84
2022/03/17 05:46:20;;;;;;;95.20;48.87;;;;;;;-1.35;73.99;100498.11;2118493;83;21429;-83
2022/03/17 05:49:21;;;;;;;83.20;45.47;;;;;;;-1.14;74.38;100502.86;2118483;84;20990;-83
2022/03/17 05:52:21;;;;;;;89.23;44.33;;;;;;;-0.92;74.63;100499.14;2117613;84;20954;-82
2022/03/17 05:55:22;;;;;;;92.83;44.60;;;;;;;-0.69;75.29;100501.58;2117524;84;21041;-81
2022/03/17 05:58:22;;;;;;;79.43;45.10;;;;;;;-0.43;75.04;100504.09;2116585;84;21046;-81
2022/03/17 06:01:23;;;;;;;124.00;71.17;;;;;;;-0.14;74.86;100509.00;2116569;84;21228;-81
2022/03/17 06:04:23;;;;;;;83.37;49.10;;;;;;;0.09;74.83;100505.34;2116862;84;20958;-80
2022/03/17 06:07:23;;;;;;;79.60;43.13;;;;;;;0.33;74.31;100509.34;2115521;84;21005;-81
2022/03/17 06:10:24;;;;;;;104.70;44.87;;;;;;;0.57;74.22;100507.00;2117011;84;21373;-80
2022/03/17 06:13:25;;;;;;;72.23;40.47;;;;;;;0.78;73.76;100501.33;2117626;84;21042;-81
2022/03/17 06:16:25;;;;;;;85.07;42.67;;;;;;;0.96;73.53;100504.44;2116242;84;21576;-81
2022/03/17 06:19:26;;;;;;;80.20;42.77;;;;;;;1.17;72.95;100504.77;2116839;84;21402;-81
2022/03/17 06:22:27;;;;;;;70.20;41.03;;;;;;;1.39;72.56;100503.80;2116864;84;21350;-81
2022/03/17 06:25:27;;;;;;;64.57;39.20;;;;;;;1.57;72.03;100501.29;2116769;84;21561;-78
2022/03/17 06:28:28;;;;;;;67.80;38.37;;;;;;;1.75;71.44;100506.53;2115910;83;21002;-83
2022/03/17 06:31:28;;;;;;;80.13;40.67;;;;;;;1.99;71.51;100506.52;2116689;84;20978;-84
2022/03/17 06:34:29;;;;;;;71.53;39.30;;;;;;;2.21;71.08;100510.73;2117853;84;20998;-81
2022/03/17 06:37:30;;;;;;;1619.00;167.53;;;;;;;2.39;70.18;100511.13;2117598;84;21001;-82
2022/03/17 06:40:30;;;;;;;72.50;40.43;;;;;;;2.60;70.23;100501.45;2118302;84;20998;-81
2022/03/17 06:43:31;;;;;;;104.37;39.73;;;;;;;2.81;69.65;100505.52;2120678;83;21049;-81
2022/03/17 06:46:31;;;;;;;66.63;39.73;;;;;;;2.95;68.82;100500.02;2123403;84;21041;-77
2022/03/17 06:49:32;;;;;;;74.70;38.70;;;;;;;3.20;68.80;100509.91;2115859;84;21401;-80
2022/03/17 06:52:32;;;;;;;113.93;37.83;;;;;;;3.37;67.41;100508.84;2116220;84;20982;-81
2022/03/17 06:55:33;;;;;;;68.40;36.83;;;;;;;3.47;66.00;100507.41;2123677;84;20974;-80
2022/03/17 06:58:34;;;;;;;66.70;37.90;;;;;;;3.56;65.94;100513.58;2116728;84;21056;-81
2022/03/17 07:01:34;;;;;;;60.07;38.77;;;;;;;3.77;65.21;100514.98;2107860;84;20962;-82
2022/03/17 07:04:35;;;;;;;61.90;36.87;;;;;;;3.97;65.24;100507.22;2114033;84;21002;-81
2022/03/17 07:07:35;;;;;;;61.53;37.43;;;;;;;4.23;64.42;100512.76;2122845;84;21010;-82
2022/03/17 07:10:36;;;;;;;64.63;39.60;;;;;;;4.41;63.02;100509.67;2116059;84;21389;-83
2022/03/17 07:13:38;;;;;;;62.07;35.27;;;;;;;4.58;62.19;100509.83;2089418;85;21432;-82
2022/03/17 07:16:39;;;;;;;62.90;36.47;;;;;;;4.73;61.03;100518.13;2123520;84;21089;-81
2022/03/17 07:19:39;;;;;;;88.57;38.50;;;;;;;4.84;60.44;100516.20;2124957;84;20983;-81
2022/03/17 07:22:40;;;;;;;60.20;37.70;;;;;;;4.91;59.56;100522.23;2123671;84;20985;-80
2022/03/17 07:25:41;;;;;;;82.50;38.93;;;;;;;5.03;59.73;100521.68;2123060;84;20990;-80
2022/03/17 07:28:44;;;;;;;56.13;36.23;;;;;;;5.27;59.13;100517.51;2122744;84;21374;-82
2022/03/17 07:31:44;;;;;;;53.07;34.90;;;;;;;5.44;56.94;100524.58;2122939;84;21006;-82
2022/03/17 07:34:44;;;;;;;58.43;36.17;;;;;;;5.56;58.00;100525.30;2123146;84;22045;-82
2022/03/17 07:37:45;;;;;;;70.97;36.33;;;;;;;5.76;57.32;100530.33;2122690;84;20998;-79
2022/03/17 07:40:46;;;;;;;52.20;33.67;;;;;;;5.88;56.49;100524.55;2122773;84;20978;-81
2022/03/17 07:43:47;;;;;;;54.03;33.70;;;;;;;5.86;54.95;100524.87;2112767;84;21065;-83
2022/03/17 07:49:50;;;;;;;51.60;34.00;;;;;;;5.90;54.92;100544.11;2092305;84;20982;-82
2022/03/17 07:52:51;;;;;;;68.07;36.77;;;;;;;5.98;54.84;100553.22;2098002;84;21387;-82
2022/03/17 07:55:54;;;;;;;54.37;35.17;;;;;;;6.00;54.76;100554.20;2097314;84;20983;-82
2022/03/17 07:58:53;;;;;;;57.17;34.40;;;;;;;6.16;54.62;100564.66;2108519;84;20979;-80
2022/03/17 08:01:54;;;;;;;58.57;35.73;;;;;;;6.34;54.56;100557.92;2106759;83;21485;-82
2022/03/17 08:04:55;;;;;;;56.40;35.03;;;;;;;6.45;53.28;100566.70;2096015;84;21018;-80
2022/03/17 08:07:55;;;;;;;60.23;36.27;;;;;;;6.53;53.92;100570.20;2115529;83;20966;-81
2022/03/17 08:10:57;;;;;;;57.30;34.80;;;;;;;6.67;52.88;100574.85;2105227;84;21013;-81
2022/03/17 08:13:58;;;;;;;80.13;37.43;;;;;;;6.81;53.91;100575.59;2115878;84;21014;-81
2022/03/17 08:16:58;;;;;;;91.00;58.50;;;;;;;7.09;53.06;100581.90;2115883;84;21041;-82
2022/03/17 08:19:59;;;;;;;120.70;38.90;;;;;;;7.23;51.34;100584.82;2089565;85;21107;-82
2022/03/17 08:22:59;;;;;;;47.33;29.70;;;;;;;7.27;51.83;100586.77;2088593;84;21009;-80
2022/03/17 08:26:00;;;;;;;84.33;31.23;;;;;;;7.40;51.01;100591.79;2098494;84;20986;-77
2022/03/17 08:29:01;;;;;;;51.00;32.73;;;;;;;7.44;50.10;100591.14;2108616;84;20951;-79
2022/03/17 08:32:01;;;;;;;75.33;31.40;;;;;;;7.29;50.05;100597.72;2088490;85;21405;-81
2022/03/17 08:35:02;;;;;;;77.97;30.70;;;;;;;7.30;49.91;100599.91;2089612;84;21006;-81
2022/03/17 08:38:03;;;;;;;50.93;30.37;;;;;;;7.31;49.47;100596.50;2089261;84;20998;-80
2022/03/17 08:41:04;;;;;;;55.90;29.83;;;;;;;7.32;50.29;100595.28;2077390;85;20986;-79
2022/03/17 08:44:05;;;;;;;118.43;33.63;;;;;;;7.39;49.45;100596.50;2104461;84;21050;-79
2022/03/17 08:50:24;;;;;;;45.40;28.67;;;;;;;7.83;50.16;100604.42;2116119;84;21029;-81
2022/03/17 08:53:25;;;;;;;48.40;29.93;;;;;;;7.83;50.16;100604.42;2115462;84;21022;-82
2022/03/17 08:56:25;;;;;;;47.57;30.00;;;;;;;7.95;48.45;100603.33;2108713;84;21030;-81
2022/03/17 08:59:30;;;;;;;42.17;27.60;;;;;;;7.92;48.36;100603.17;2107406;84;21397;-80
2022/03/17 09:02:30;;;;;;;41.48;27.07;;;;;;;8.04;47.23;100604.19;2118301;84;21054;-80
2022/03/17 09:05:33;;;;;;;190.20;39.47;;;;;;;8.16;47.66;100600.90;2115716;83;20998;-82
2022/03/17 09:11:35;;;;;;;71.07;28.50;;;;;;;8.17;47.02;100587.08;2087610;85;21689;-81
2022/03/17 09:14:36;;;;;;;47.20;24.87;;;;;;;8.25;46.59;100590.05;2103626;84;21099;-80
2022/03/17 09:17:37;;;;;;;177.23;32.30;;;;;;;8.45;45.93;100601.05;2116823;84;20994;-81
2022/03/17 09:20:37;;;;;;;44.07;24.13;;;;;;;8.48;44.79;100606.39;2115820;84;20927;-82
2022/03/17 09:23:38;;;;;;;45.07;22.20;;;;;;;8.50;45.00;100611.67;2105025;83;21003;-81
2022/03/17 09:26:39;;;;;;;135.67;27.43;;;;;;;8.62;44.55;100610.95;2108772;84;21248;-81
2022/03/17 09:29:40;;;;;;;114.00;23.37;;;;;;;8.75;43.89;100621.58;2105137;84;20955;-82
2022/03/17 09:32:41;;;;;;;43.47;22.13;;;;;;;8.83;43.58;100604.19;2107669;84;21014;-79
2022/03/17 09:35:42;;;;;;;30.83;21.27;;;;;;;8.94;43.77;100612.50;2105134;84;21009;-79
2022/03/17 09:38:42;;;;;;;35.97;19.83;;;;;;;9.01;42.70;100617.17;2102346;83;21040;-81
2022/03/17 09:41:43;;;;;;;27.53;20.80;;;;;;;9.08;42.01;100611.83;2106890;84;20993;-82
2022/03/17 09:44:46;;;;;;;47.03;19.80;;;;;;;9.15;41.87;100615.20;2094358;84;21002;-81
2022/03/17 09:47:45;;;;;;;35.23;19.77;;;;;;;9.29;42.79;100618.42;2119537;83;21218;-81
2022/03/17 09:50:46;;;;;;;35.17;18.70;;;;;;;9.45;42.44;100621.78;2122107;84;20974;-81
2022/03/17 09:53:47;;;;;;;25.40;17.73;;;;;;;9.51;41.30;100619.86;2109017;83;21042;-82
2022/03/17 09:56:47;;;;;;;33.20;17.93;;;;;;;9.56;41.70;100616.66;2090971;84;21022;-78
2022/03/17 09:59:56;;;;;;;23.90;16.80;;;;;;;9.61;40.50;100625.10;2111306;83;21002;-82
2022/03/17 10:02:53;;;;;;;122.00;21.83;;;;;;;9.66;41.00;100630.11;2116450;84;21053;-82
2022/03/17 10:05:53;;;;;;;61.27;17.70;;;;;;;9.67;40.44;100617.55;2116867;84;20966;-82
2022/03/17 10:08:54;;;;;;;25.77;16.93;;;;;;;9.71;40.18;100609.92;2112315;83;20982;-82
2022/03/17 10:11:55;;;;;;;27.53;16.10;;;;;;;9.73;40.24;100621.31;2108772;84;20963;-82
2022/03/17 10:14:55;;;;;;;25.77;15.87;;;;;;;9.75;39.92;100621.38;2110426;84;21474;-83
2022/03/17 10:17:56;;;;;;;20.13;15.50;;;;;;;9.81;39.21;100602.97;2109113;84;21022;-81
2022/03/17 10:20:57;;;;;;;36.97;16.90;;;;;;;9.91;38.61;100617.30;2115955;84;21005;-82
2022/03/17 10:23:59;;;;;;;22.63;15.70;;;;;;;9.91;39.60;100605.56;2102232;84;20951;-81
2022/03/17 10:27:01;;;;;;;42.03;17.37;;;;;;;10.07;38.84;100611.89;2123124;84;21453;-82
2022/03/17 10:30:01;;;;;;;249.67;25.97;;;;;;;10.03;38.79;100606.08;2123276;84;21069;-81
2022/03/17 10:33:03;;;;;;;22.60;15.27;;;;;;;9.96;38.55;100597.92;2123579;84;20979;-82
2022/03/17 10:36:04;;;;;;;22.30;15.27;;;;;;;9.89;38.78;100605.91;2124139;84;21384;-81
2022/03/17 10:39:05;;;;;;;27.23;14.97;;;;;;;9.92;39.28;100603.84;2122063;84;21038;-82
2022/03/17 10:42:05;;;;;;;23.43;14.30;;;;;;;10.04;38.52;100604.36;2106764;84;21425;-78
2022/03/17 10:45:06;;;;;;;26.10;15.03;;;;;;;9.96;38.34;100601.42;2115455;84;21078;-83
2022/03/17 10:48:08;;;;;;;32.53;17.17;;;;;;;9.93;37.00;100588.25;2107730;83;21109;-80
2022/03/17 10:51:09;;;;;;;21.17;15.83;;;;;;;9.79;38.10;100595.91;2116764;84;21121;-82
2022/03/17 10:54:09;;;;;;;31.53;17.00;;;;;;;9.82;38.85;100599.95;2116123;84;20986;-81
2022/03/17 10:57:11;;;;;;;26.03;15.90;;;;;;;9.80;37.94;100595.08;2115052;84;21862;-82
2022/03/17 11:00:15;;;;;;;21.90;15.30;;;;;;;9.89;37.60;100596.78;2113931;83;21050;-83
2022/03/17 11:03:16;;;;;;;22.70;15.23;;;;;;;9.89;37.64;100598.08;2108877;84;20983;-82
2022/03/17 11:06:16;;;;;;;20.60;14.73;;;;;;;9.99;38.10;100595.45;2121847;84;21248;-82
2022/03/17 11:09:19;;;;;;;133.57;22.80;;;;;;;10.05;38.57;100586.16;2109957;83;21025;-79
2022/03/17 11:12:20;;;;;;;21.10;15.43;;;;;;;10.24;37.91;100593.05;2108668;83;21707;-82
2022/03/17 11:15:21;;;;;;;763.83;80.30;;;;;;;10.18;35.81;100597.58;2112795;84;21191;-80
2022/03/17 11:18:24;;;;;;;204.23;26.17;;;;;;;10.08;36.75;100594.52;2084545;83;21080;-84
2022/03/17 11:21:24;;;;;;;28.10;15.30;;;;;;;10.12;36.29;100590.80;2117557;84;21062;-82
2022/03/17 11:24:25;;;;;;;19.30;13.83;;;;;;;10.06;36.31;100594.88;2116043;84;21006;-82
2022/03/17 11:27:26;;;;;;;19.67;14.47;;;;;;;10.00;36.34;100607.25;2117467;84;21008;-83
2022/03/17 11:30:26;;;;;;;45.87;15.50;;;;;;;9.90;36.99;100597.25;2107712;84;20990;-79
2022/03/17 11:33:27;;;;;;;31.53;13.13;;;;;;;9.97;36.27;100599.30;2114817;84;20996;-81
2022/03/17 11:36:27;;;;;;;24.50;14.23;;;;;;;10.13;36.73;100594.30;2116546;84;21037;-84
2022/03/17 11:39:28;;;;;;;140.93;20.77;;;;;;;10.11;36.67;100592.04;2114761;84;21106;-81
2022/03/17 11:42:29;;;;;;;21.07;14.57;;;;;;;10.18;35.65;100590.16;2117499;84;21025;-80
2022/03/17 11:45:29;;;;;;;47.77;16.63;;;;;;;10.20;36.16;100592.04;2108153;83;21029;-81
2022/03/17 11:48:30;;;;;;;69.37;16.50;;;;;;;10.24;35.65;100593.47;2117651;84;21029;-81
2022/03/17 11:51:30;;;;;;;24.17;17.60;;;;;;;10.23;36.00;100592.99;2115921;84;20998;-82
2022/03/17 11:54:31;;;;;;;22.07;14.87;;;;;;;10.28;36.08;100595.38;2117625;84;20958;-80
2022/03/17 11:57:31;;;;;;;180.90;20.90;;;;;;;10.17;36.06;100595.80;2109346;83;21021;-82
2022/03/17 12:00:33;;;;;;;19.20;13.53;;;;;;;10.14;36.58;100586.53;2119414;84;21009;-82
2022/03/17 12:03:34;;;;;;;46.83;13.90;;;;;;;10.31;36.66;100586.36;2110285;83;20971;-82
2022/03/17 12:06:36;;;;;;;40.83;13.63;;;;;;;10.39;35.07;100584.95;2093800;84;21456;-84
2022/03/17 12:09:37;;;;;;;43.70;14.47;;;;;;;10.43;35.11;100591.70;2119869;83;20995;-81
2022/03/17 12:12:37;;;;;;;19.53;12.57;;;;;;;10.50;35.25;100585.89;2120075;84;21015;-82
2022/03/17 12:15:39;;;;;;;34.67;11.23;;;;;;;10.55;34.65;100578.23;2112896;84;21038;-79
2022/03/17 12:18:39;;;;;;;26.40;11.50;;;;;;;10.58;33.10;100557.47;2110173;83;21082;-82
2022/03/17 12:21:40;;;;;;;20.40;11.23;;;;;;;10.52;33.63;100578.11;2111225;84;20950;-82
2022/03/17 12:24:40;;;;;;;27.97;13.53;;;;;;;10.50;34.22;100574.55;2115874;84;21001;-81
2022/03/17 12:27:42;;;;;;;19.93;12.20;;;;;;;10.34;34.07;100570.83;2120556;84;20982;-82
2022/03/17 12:30:43;;;;;;;20.40;12.50;;;;;;;10.24;34.51;100568.27;2109750;83;21027;-81
2022/03/17 12:33:44;;;;;;;18.77;11.40;;;;;;;10.21;34.95;100565.11;2117932;84;20987;-81
2022/03/17 12:36:45;;;;;;;19.00;11.13;;;;;;;10.36;35.03;100563.95;2113337;84;21092;-81
2022/03/17 12:39:45;;;;;;;17.57;11.27;;;;;;;10.35;33.30;100554.33;2110963;84;21417;-81
2022/03/17 12:42:46;;;;;;;34.43;13.03;;;;;;;10.35;34.05;100562.16;2116846;84;22028;-82
2022/03/17 12:45:49;;;;;;;14.77;11.47;;;;;;;10.48;34.39;100552.72;2117641;84;21022;-82
2022/03/17 12:48:50;;;;;;;17.37;11.33;;;;;;;10.57;34.07;100560.02;2117391;84;21077;-81
2022/03/17 12:51:50;;;;;;;13.77;10.27;;;;;;;10.55;33.14;100548.63;2117098;84;21002;-81
2022/03/17 12:54:51;;;;;;;15.33;10.37;;;;;;;10.58;32.92;100557.47;2108615;84;21259;-81
2022/03/17 12:57:51;;;;;;;12.80;10.03;;;;;;;10.57;32.57;100551.77;2112449;84;21041;-80
2022/03/17 13:00:52;;;;;;;19.10;10.77;;;;;;;10.52;31.74;100555.50;2112022;84;20994;-81
2022/03/17 13:03:53;;;;;;;40.33;13.50;;;;;;;10.51;31.86;100550.22;2116045;84;20951;-83
2022/03/17 13:06:54;;;;;;;19.43;10.97;;;;;;;10.46;31.82;100548.74;2115861;84;21010;-83
2022/03/17 13:09:54;;;;;;;14.43;11.20;;;;;;;10.52;32.91;100546.78;2116166;84;21042;-81
2022/03/17 13:16:14;;;;;;;15.13;10.60;;;;;;;10.64;32.93;100541.14;2108449;84;20990;-82
2022/03/17 13:19:16;;;;;;;25.77;17.37;;;;;;;10.74;32.83;100536.75;2115973;84;21065;-84
2022/03/17 13:22:16;;;;;;;16.37;11.20;;;;;;;10.64;32.66;100541.14;2116674;84;21414;-83
2022/03/17 13:25:17;;;;;;;310.03;33.23;;;;;;;10.64;32.72;100549.88;2115438;84;20955;-82
2022/03/17 13:28:17;;;;;;;178.27;16.20;;;;;;;10.64;33.10;100535.50;2111006;84;21010;-81
2022/03/17 13:31:18;;;;;;;28.50;11.17;;;;;;;10.65;32.41;100516.81;2117674;84;21069;-80
2022/03/17 13:34:19;;;;;;;15.50;10.60;;;;;;;10.52;32.79;100528.51;2111717;84;21006;-79
2022/03/17 13:37:20;;;;;;;14.10;10.13;;;;;;;10.45;32.90;100537.83;2119722;84;21018;-81
2022/03/17 13:40:21;;;;;;;12.37;10.00;;;;;;;10.43;32.92;100544.70;2109825;84;20997;-79
2022/03/17 13:43:22;;;;;;;17.83;9.63;;;;;;;10.46;32.86;100540.02;2109982;84;21002;-80
2022/03/17 13:46:23;;;;;;;11.87;8.63;;;;;;;10.56;33.08;100536.05;2115500;83;20986;-80
2022/03/17 13:49:27;;;;;;;17.57;9.87;;;;;;;10.65;32.01;100539.01;2116194;83;21026;-80
2022/03/17 13:52:25;;;;;;;31.73;11.40;;;;;;;10.65;31.47;100537.28;2116992;84;21046;-81
2022/03/17 13:55:26;;;;;;;18.17;9.53;;;;;;;10.58;31.21;100538.30;2116120;84;20987;-81
2022/03/17 13:58:26;;;;;;;15.00;9.17;;;;;;;10.59;32.27;100534.86;2118405;84;21033;-83
2022/03/17 14:01:27;;;;;;;14.13;8.77;;;;;;;10.57;32.39;100538.72;2118231;84;20990;-82
2022/03/17 14:04:28;;;;;;;14.37;8.80;;;;;;;10.53;31.26;100541.63;2116441;83;20974;-81
2022/03/17 14:07:28;;;;;;;25.80;9.77;;;;;;;10.45;31.61;100546.07;2117220;84;21026;-81
2022/03/17 14:10:29;;;;;;;13.37;8.67;;;;;;;10.35;31.50;100539.56;2117465;84;21377;-81